sensor_id;sensor_type;location;lat;lon;timestamp;P1;durP1;ratioP1;P2;durP2;ratioP2
6973;SDS011;3527;52.376;8.990;2023-04-01T00:01:23;3.47;;;2.13;;
6973;SDS011;3527;52.376;8.990;2023-04-01T00:03:50;5.73;;;1.90;;
6973;SDS011;3527;52.376;8.990;2023-04-01T00:06:17;4.67;;;2.27;;
6973;SDS011;3527;52.376;8.990;2023-04-01T00:08:45;5.60;;;2.17;;
6973;SDS011;3527;52.376;8.990;2023-04-01T00:11:12;5.00;;;2.20;;
6973;SDS011;3527;52.376;8.990;2023-04-01T00:13:38;6.40;;;2.00;;
6973;SDS011;3527;52.376;8.990;2023-04-01T00:16:06;5.67;;;2.50;;
6973;SDS011;3527;52.376;8.990;2023-04-01T00:18:47;2.73;;;1.93;;
6973;SDS011;3527;52.376;8.990;2023-04-01T00:21:14;2.20;;;1.73;;
6973;SDS011;3527;52.376;8.990;2023-04-01T00:23:40;3.10;;;2.20;;
6973;SDS011;3527;52.376;8.990;2023-04-01T00:26:08;5.03;;;2.10;;
6973;SDS011;3527;52.376;8.990;2023-04-01T00:28:34;4.10;;;2.37;;
6973;SDS011;3527;52.376;8.990;2023-04-01T00:31:08;4.70;;;2.83;;
6973;SDS011;3527;52.376;8.990;2023-04-01T00:33:35;4.67;;;2.53;;
6973;SDS011;3527;52.376;8.990;2023-04-01T00:36:12;3.23;;;2.40;;
6973;SDS011;3527;52.376;8.990;2023-04-01T00:38:39;3.40;;;2.37;;
6973;SDS011;3527;52.376;8.990;2023-04-01T00:41:07;4.57;;;2.60;;
6973;SDS011;3527;52.376;8.990;2023-04-01T00:43:34;4.07;;;2.77;;
6973;SDS011;3527;52.376;8.990;2023-04-01T00:46:01;4.30;;;2.40;;
6973;SDS011;3527;52.376;8.990;2023-04-01T00:48:29;5.17;;;2.90;;
6973;SDS011;3527;52.376;8.990;2023-04-01T00:51:02;6.50;;;2.90;;
6973;SDS011;3527;52.376;8.990;2023-04-01T00:53:31;3.10;;;2.57;;
6973;SDS011;3527;52.376;8.990;2023-04-01T00:56:00;7.90;;;3.17;;
6973;SDS011;3527;52.376;8.990;2023-04-01T00:58:29;4.77;;;3.03;;
6973;SDS011;3527;52.376;8.990;2023-04-01T01:00:58;5.33;;;2.60;;
6973;SDS011;3527;52.376;8.990;2023-04-01T01:03:25;3.93;;;2.73;;
6973;SDS011;3527;52.376;8.990;2023-04-01T01:08:35;4.50;;;2.20;;
6973;SDS011;3527;52.376;8.990;2023-04-01T01:11:07;3.90;;;2.23;;
6973;SDS011;3527;52.376;8.990;2023-04-01T01:13:41;3.40;;;2.00;;
6973;SDS011;3527;52.376;8.990;2023-04-01T01:16:11;4.90;;;1.80;;
6973;SDS011;3527;52.376;8.990;2023-04-01T01:18:48;3.60;;;1.73;;
6973;SDS011;3527;52.376;8.990;2023-04-01T01:21:28;4.20;;;1.83;;
6973;SDS011;3527;52.376;8.990;2023-04-01T01:29:09;2.87;;;2.00;;
6973;SDS011;3527;52.376;8.990;2023-04-01T01:31:44;5.20;;;2.47;;
6973;SDS011;3527;52.376;8.990;2023-04-01T01:34:17;3.67;;;2.00;;
6973;SDS011;3527;52.376;8.990;2023-04-01T01:36:48;3.23;;;2.07;;
6973;SDS011;3527;52.376;8.990;2023-04-01T01:39:17;5.00;;;2.00;;
6973;SDS011;3527;52.376;8.990;2023-04-01T01:41:44;4.80;;;2.10;;
6973;SDS011;3527;52.376;8.990;2023-04-01T01:44:13;3.03;;;1.90;;
6973;SDS011;3527;52.376;8.990;2023-04-01T01:46:40;2.57;;;1.80;;
6973;SDS011;3527;52.376;8.990;2023-04-01T01:49:08;3.87;;;1.60;;
6973;SDS011;3527;52.376;8.990;2023-04-01T01:51:36;3.90;;;1.97;;
6973;SDS011;3527;52.376;8.990;2023-04-01T01:54:04;3.63;;;1.60;;
6973;SDS011;3527;52.376;8.990;2023-04-01T01:56:31;2.87;;;1.50;;
6973;SDS011;3527;52.376;8.990;2023-04-01T01:59:00;4.67;;;1.80;;
6973;SDS011;3527;52.376;8.990;2023-04-01T02:01:28;2.20;;;1.50;;
6973;SDS011;3527;52.376;8.990;2023-04-01T02:03:56;3.83;;;1.43;;
6973;SDS011;3527;52.376;8.990;2023-04-01T02:06:24;3.57;;;1.73;;
6973;SDS011;3527;52.376;8.990;2023-04-01T02:08:54;2.10;;;1.50;;
6973;SDS011;3527;52.376;8.990;2023-04-01T02:11:26;3.80;;;1.50;;
6973;SDS011;3527;52.376;8.990;2023-04-01T02:13:54;2.40;;;1.60;;
6973;SDS011;3527;52.376;8.990;2023-04-01T02:16:40;3.67;;;1.37;;
6973;SDS011;3527;52.376;8.990;2023-04-01T02:19:10;5.13;;;1.43;;
6973;SDS011;3527;52.376;8.990;2023-04-01T02:21:38;4.20;;;1.47;;
6973;SDS011;3527;52.376;8.990;2023-04-01T02:24:07;3.17;;;1.60;;
6973;SDS011;3527;52.376;8.990;2023-04-01T02:26:34;2.93;;;1.10;;
6973;SDS011;3527;52.376;8.990;2023-04-01T02:29:01;3.37;;;1.70;;
6973;SDS011;3527;52.376;8.990;2023-04-01T02:31:28;2.67;;;1.43;;
6973;SDS011;3527;52.376;8.990;2023-04-01T02:33:55;1.97;;;1.23;;
6973;SDS011;3527;52.376;8.990;2023-04-01T02:36:21;4.03;;;1.60;;
6973;SDS011;3527;52.376;8.990;2023-04-01T02:38:48;5.37;;;1.90;;
6973;SDS011;3527;52.376;8.990;2023-04-01T02:41:16;5.37;;;1.27;;
6973;SDS011;3527;52.376;8.990;2023-04-01T02:43:42;4.40;;;1.30;;
6973;SDS011;3527;52.376;8.990;2023-04-01T02:46:09;2.53;;;1.30;;
6973;SDS011;3527;52.376;8.990;2023-04-01T02:48:36;4.57;;;1.40;;
6973;SDS011;3527;52.376;8.990;2023-04-01T02:51:02;3.00;;;1.20;;
6973;SDS011;3527;52.376;8.990;2023-04-01T02:53:29;3.27;;;1.23;;
6973;SDS011;3527;52.376;8.990;2023-04-01T02:55:56;3.27;;;1.30;;
6973;SDS011;3527;52.376;8.990;2023-04-01T02:58:22;2.13;;;1.00;;
6973;SDS011;3527;52.376;8.990;2023-04-01T03:00:49;1.57;;;1.33;;
6973;SDS011;3527;52.376;8.990;2023-04-01T03:03:15;3.10;;;1.40;;
6973;SDS011;3527;52.376;8.990;2023-04-01T03:05:42;3.87;;;1.20;;
6973;SDS011;3527;52.376;8.990;2023-04-01T03:08:08;1.90;;;1.20;;
6973;SDS011;3527;52.376;8.990;2023-04-01T03:10:35;3.00;;;1.13;;
6973;SDS011;3527;52.376;8.990;2023-04-01T03:13:02;2.37;;;1.33;;
6973;SDS011;3527;52.376;8.990;2023-04-01T03:15:28;2.30;;;1.20;;
6973;SDS011;3527;52.376;8.990;2023-04-01T03:17:55;2.43;;;1.00;;
6973;SDS011;3527;52.376;8.990;2023-04-01T03:20:21;2.03;;;0.90;;
6973;SDS011;3527;52.376;8.990;2023-04-01T03:22:48;2.23;;;1.23;;
6973;SDS011;3527;52.376;8.990;2023-04-01T03:25:15;2.63;;;1.00;;
6973;SDS011;3527;52.376;8.990;2023-04-01T03:27:41;1.80;;;1.07;;
6973;SDS011;3527;52.376;8.990;2023-04-01T03:30:08;1.70;;;1.00;;
6973;SDS011;3527;52.376;8.990;2023-04-01T03:32:35;3.33;;;0.90;;
6973;SDS011;3527;52.376;8.990;2023-04-01T03:35:02;2.63;;;1.00;;
6973;SDS011;3527;52.376;8.990;2023-04-01T03:37:29;3.40;;;1.00;;
6973;SDS011;3527;52.376;8.990;2023-04-01T03:39:55;1.93;;;0.90;;
6973;SDS011;3527;52.376;8.990;2023-04-01T03:42:22;2.73;;;1.00;;
6973;SDS011;3527;52.376;8.990;2023-04-01T03:44:49;5.57;;;1.40;;
6973;SDS011;3527;52.376;8.990;2023-04-01T03:47:16;1.83;;;1.10;;
6973;SDS011;3527;52.376;8.990;2023-04-01T03:49:42;2.10;;;1.00;;
6973;SDS011;3527;52.376;8.990;2023-04-01T03:52:09;1.00;;;0.77;;
6973;SDS011;3527;52.376;8.990;2023-04-01T03:54:37;2.27;;;0.90;;
6973;SDS011;3527;52.376;8.990;2023-04-01T03:57:04;3.57;;;1.00;;
6973;SDS011;3527;52.376;8.990;2023-04-01T03:59:31;1.70;;;0.90;;
6973;SDS011;3527;52.376;8.990;2023-04-01T04:01:58;2.93;;;0.80;;
6973;SDS011;3527;52.376;8.990;2023-04-01T04:04:25;2.70;;;1.00;;
6973;SDS011;3527;52.376;8.990;2023-04-01T04:06:53;3.53;;;1.00;;
6973;SDS011;3527;52.376;8.990;2023-04-01T04:09:19;1.30;;;0.90;;
6973;SDS011;3527;52.376;8.990;2023-04-01T04:11:47;2.33;;;0.93;;
6973;SDS011;3527;52.376;8.990;2023-04-01T04:14:14;1.83;;;0.83;;
6973;SDS011;3527;52.376;8.990;2023-04-01T04:17:01;2.73;;;1.10;;
6973;SDS011;3527;52.376;8.990;2023-04-01T04:19:36;1.40;;;1.00;;
6973;SDS011;3527;52.376;8.990;2023-04-01T04:22:04;1.10;;;0.90;;
6973;SDS011;3527;52.376;8.990;2023-04-01T04:24:50;1.70;;;1.00;;
6973;SDS011;3527;52.376;8.990;2023-04-01T04:27:17;1.63;;;0.80;;
6973;SDS011;3527;52.376;8.990;2023-04-01T04:29:45;4.60;;;1.07;;
6973;SDS011;3527;52.376;8.990;2023-04-01T04:32:12;2.13;;;1.00;;
6973;SDS011;3527;52.376;8.990;2023-04-01T04:34:39;3.27;;;1.00;;
6973;SDS011;3527;52.376;8.990;2023-04-01T04:37:06;2.87;;;1.20;;
6973;SDS011;3527;52.376;8.990;2023-04-01T04:39:32;2.07;;;0.90;;
6973;SDS011;3527;52.376;8.990;2023-04-01T04:41:59;2.90;;;1.27;;
6973;SDS011;3527;52.376;8.990;2023-04-01T04:44:25;2.70;;;0.97;;
6973;SDS011;3527;52.376;8.990;2023-04-01T04:46:52;5.43;;;1.20;;
6973;SDS011;3527;52.376;8.990;2023-04-01T04:49:20;1.70;;;0.80;;
6973;SDS011;3527;52.376;8.990;2023-04-01T04:51:46;2.80;;;1.10;;
6973;SDS011;3527;52.376;8.990;2023-04-01T04:54:13;3.23;;;0.97;;
6973;SDS011;3527;52.376;8.990;2023-04-01T04:56:40;2.83;;;0.90;;
6973;SDS011;3527;52.376;8.990;2023-04-01T04:59:06;3.43;;;1.03;;
6973;SDS011;3527;52.376;8.990;2023-04-01T05:01:33;2.33;;;0.90;;
6973;SDS011;3527;52.376;8.990;2023-04-01T05:03:59;3.33;;;1.17;;
6973;SDS011;3527;52.376;8.990;2023-04-01T05:06:26;2.03;;;0.90;;
6973;SDS011;3527;52.376;8.990;2023-04-01T05:08:55;1.50;;;0.90;;
6973;SDS011;3527;52.376;8.990;2023-04-01T05:11:23;2.87;;;0.90;;
6973;SDS011;3527;52.376;8.990;2023-04-01T05:13:49;2.27;;;1.00;;
6973;SDS011;3527;52.376;8.990;2023-04-01T05:16:17;2.63;;;1.20;;
6973;SDS011;3527;52.376;8.990;2023-04-01T05:18:44;3.83;;;0.93;;
6973;SDS011;3527;52.376;8.990;2023-04-01T05:21:12;2.70;;;1.50;;
6973;SDS011;3527;52.376;8.990;2023-04-01T05:23:39;2.00;;;0.93;;
6973;SDS011;3527;52.376;8.990;2023-04-01T05:26:06;3.13;;;1.10;;
6973;SDS011;3527;52.376;8.990;2023-04-01T05:28:33;3.10;;;1.10;;
6973;SDS011;3527;52.376;8.990;2023-04-01T05:31:00;2.43;;;0.97;;
6973;SDS011;3527;52.376;8.990;2023-04-01T05:33:27;4.70;;;1.20;;
6973;SDS011;3527;52.376;8.990;2023-04-01T05:35:54;1.87;;;0.90;;
6973;SDS011;3527;52.376;8.990;2023-04-01T05:38:21;2.93;;;1.00;;
6973;SDS011;3527;52.376;8.990;2023-04-01T05:40:48;2.80;;;0.90;;
6973;SDS011;3527;52.376;8.990;2023-04-01T05:43:14;2.07;;;1.00;;
6973;SDS011;3527;52.376;8.990;2023-04-01T05:45:41;3.40;;;1.57;;
6973;SDS011;3527;52.376;8.990;2023-04-01T05:48:07;1.17;;;0.80;;
6973;SDS011;3527;52.376;8.990;2023-04-01T05:50:34;1.43;;;0.93;;
6973;SDS011;3527;52.376;8.990;2023-04-01T05:53:01;2.97;;;0.93;;
6973;SDS011;3527;52.376;8.990;2023-04-01T05:55:27;1.83;;;1.07;;
6973;SDS011;3527;52.376;8.990;2023-04-01T05:57:54;2.83;;;1.20;;
6973;SDS011;3527;52.376;8.990;2023-04-01T06:00:20;1.90;;;0.97;;
6973;SDS011;3527;52.376;8.990;2023-04-01T06:02:47;3.00;;;1.10;;
6973;SDS011;3527;52.376;8.990;2023-04-01T06:05:16;3.93;;;1.63;;
6973;SDS011;3527;52.376;8.990;2023-04-01T06:07:43;2.10;;;0.90;;
6973;SDS011;3527;52.376;8.990;2023-04-01T06:10:14;1.30;;;1.00;;
6973;SDS011;3527;52.376;8.990;2023-04-01T06:12:50;2.67;;;1.00;;
6973;SDS011;3527;52.376;8.990;2023-04-01T06:23:09;2.10;;;1.07;;
6973;SDS011;3527;52.376;8.990;2023-04-01T06:25:46;2.00;;;0.93;;
6973;SDS011;3527;52.376;8.990;2023-04-01T06:30:50;1.10;;;0.80;;
6973;SDS011;3527;52.376;8.990;2023-04-01T06:36:18;1.80;;;0.83;;
6973;SDS011;3527;52.376;8.990;2023-04-01T06:44:40;4.97;;;2.43;;
6973;SDS011;3527;52.376;8.990;2023-04-01T06:54:52;1.30;;;1.10;;
6973;SDS011;3527;52.376;8.990;2023-04-01T06:57:38;1.17;;;0.80;;
6973;SDS011;3527;52.376;8.990;2023-04-01T07:00:40;1.80;;;1.10;;
6973;SDS011;3527;52.376;8.990;2023-04-01T07:05:33;1.37;;;1.00;;
6973;SDS011;3527;52.376;8.990;2023-04-01T07:08:01;1.17;;;0.80;;
6973;SDS011;3527;52.376;8.990;2023-04-01T07:10:41;1.20;;;0.67;;
6973;SDS011;3527;52.376;8.990;2023-04-01T07:13:20;1.00;;;0.70;;
6973;SDS011;3527;52.376;8.990;2023-04-01T07:15:51;1.10;;;0.50;;
6973;SDS011;3527;52.376;8.990;2023-04-01T07:18:29;1.07;;;0.70;;
6973;SDS011;3527;52.376;8.990;2023-04-01T07:20:56;1.80;;;1.00;;
6973;SDS011;3527;52.376;8.990;2023-04-01T07:23:36;1.40;;;0.90;;
6973;SDS011;3527;52.376;8.990;2023-04-01T07:26:16;1.57;;;0.83;;
6973;SDS011;3527;52.376;8.990;2023-04-01T07:28:43;1.67;;;0.90;;
6973;SDS011;3527;52.376;8.990;2023-04-01T07:31:15;1.30;;;0.70;;
6973;SDS011;3527;52.376;8.990;2023-04-01T07:36:25;1.90;;;0.70;;
6973;SDS011;3527;52.376;8.990;2023-04-01T07:44:06;1.30;;;0.70;;
6973;SDS011;3527;52.376;8.990;2023-04-01T07:49:14;1.30;;;0.90;;
6973;SDS011;3527;52.376;8.990;2023-04-01T07:51:47;1.90;;;1.00;;
6973;SDS011;3527;52.376;8.990;2023-04-01T07:55:03;2.30;;;0.97;;
6973;SDS011;3527;52.376;8.990;2023-04-01T07:57:21;2.03;;;0.93;;
6973;SDS011;3527;52.376;8.990;2023-04-01T08:00:14;1.87;;;0.90;;
6973;SDS011;3527;52.376;8.990;2023-04-01T08:05:31;2.97;;;0.83;;
6973;SDS011;3527;52.376;8.990;2023-04-01T08:08:08;1.70;;;1.00;;
6973;SDS011;3527;52.376;8.990;2023-04-01T08:13:16;2.13;;;0.80;;
6973;SDS011;3527;52.376;8.990;2023-04-01T08:21:46;2.40;;;1.30;;
6973;SDS011;3527;52.376;8.990;2023-04-01T08:27:22;5.50;;;2.90;;
6973;SDS011;3527;52.376;8.990;2023-04-01T08:32:38;2.73;;;1.07;;
6973;SDS011;3527;52.376;8.990;2023-04-01T08:37:36;2.27;;;1.23;;
6973;SDS011;3527;52.376;8.990;2023-04-01T08:40:16;2.57;;;0.97;;
6973;SDS011;3527;52.376;8.990;2023-04-01T08:55:30;0.70;;;0.67;;
6973;SDS011;3527;52.376;8.990;2023-04-01T09:00:47;1.10;;;0.60;;
6973;SDS011;3527;52.376;8.990;2023-04-01T09:03:22;2.90;;;0.80;;
6973;SDS011;3527;52.376;8.990;2023-04-01T09:18:57;1.03;;;0.80;;
6973;SDS011;3527;52.376;8.990;2023-04-01T09:21:49;0.90;;;0.70;;
6973;SDS011;3527;52.376;8.990;2023-04-01T09:39:56;1.43;;;1.17;;
6973;SDS011;3527;52.376;8.990;2023-04-01T09:45:09;2.20;;;1.63;;
6973;SDS011;3527;52.376;8.990;2023-04-01T09:47:53;2.80;;;1.43;;
6973;SDS011;3527;52.376;8.990;2023-04-01T10:13:53;3.27;;;2.03;;
6973;SDS011;3527;52.376;8.990;2023-04-01T10:16:49;2.43;;;1.80;;
6973;SDS011;3527;52.376;8.990;2023-04-01T10:22:08;2.87;;;1.80;;
6973;SDS011;3527;52.376;8.990;2023-04-01T10:37:53;1.63;;;1.00;;
6973;SDS011;3527;52.376;8.990;2023-04-01T10:45:51;1.77;;;1.20;;
6973;SDS011;3527;52.376;8.990;2023-04-01T10:51:12;1.20;;;0.90;;
6973;SDS011;3527;52.376;8.990;2023-04-01T10:59:07;2.87;;;1.20;;
6973;SDS011;3527;52.376;8.990;2023-04-01T11:04:35;1.83;;;1.20;;
6973;SDS011;3527;52.376;8.990;2023-04-01T11:10:06;1.47;;;1.10;;
6973;SDS011;3527;52.376;8.990;2023-04-01T11:28:19;3.20;;;1.20;;
6973;SDS011;3527;52.376;8.990;2023-04-01T11:33:44;1.27;;;1.00;;
6973;SDS011;3527;52.376;8.990;2023-04-01T11:38:56;1.17;;;0.93;;
6973;SDS011;3527;52.376;8.990;2023-04-01T11:46:56;1.97;;;1.20;;
6973;SDS011;3527;52.376;8.990;2023-04-01T11:52:16;2.33;;;1.30;;
6973;SDS011;3527;52.376;8.990;2023-04-01T12:07:33;0.60;;;0.50;;
6973;SDS011;3527;52.376;8.990;2023-04-01T12:12:52;0.57;;;0.50;;
6973;SDS011;3527;52.376;8.990;2023-04-01T12:20:43;1.53;;;0.50;;
6973;SDS011;3527;52.376;8.990;2023-04-01T12:28:36;0.70;;;0.40;;
6973;SDS011;3527;52.376;8.990;2023-04-01T12:33:45;0.40;;;0.40;;
6973;SDS011;3527;52.376;8.990;2023-04-01T12:41:54;0.80;;;0.60;;
6973;SDS011;3527;52.376;8.990;2023-04-01T12:52:41;2.00;;;0.70;;
6973;SDS011;3527;52.376;8.990;2023-04-01T12:57:50;0.70;;;0.63;;
6973;SDS011;3527;52.376;8.990;2023-04-01T13:00:27;0.70;;;0.60;;
6973;SDS011;3527;52.376;8.990;2023-04-01T13:08:12;0.80;;;0.70;;
6973;SDS011;3527;52.376;8.990;2023-04-01T13:15:51;0.90;;;0.70;;
6973;SDS011;3527;52.376;8.990;2023-04-01T13:20:51;1.00;;;0.70;;
6973;SDS011;3527;52.376;8.990;2023-04-01T13:23:35;1.10;;;0.70;;
6973;SDS011;3527;52.376;8.990;2023-04-01T13:31:33;1.00;;;0.80;;
6973;SDS011;3527;52.376;8.990;2023-04-01T13:34:06;2.30;;;0.80;;
6973;SDS011;3527;52.376;8.990;2023-04-01T13:36:41;1.77;;;0.80;;
6973;SDS011;3527;52.376;8.990;2023-04-01T13:41:54;1.23;;;0.80;;
6973;SDS011;3527;52.376;8.990;2023-04-01T13:49:41;2.27;;;1.50;;
6973;SDS011;3527;52.376;8.990;2023-04-01T13:52:25;2.27;;;1.50;;
6973;SDS011;3527;52.376;8.990;2023-04-01T13:57:36;3.87;;;1.70;;
6973;SDS011;3527;52.376;8.990;2023-04-01T14:08:15;1.23;;;0.80;;
6973;SDS011;3527;52.376;8.990;2023-04-01T14:13:50;2.17;;;1.37;;
6973;SDS011;3527;52.376;8.990;2023-04-01T14:34:32;1.80;;;1.10;;
6973;SDS011;3527;52.376;8.990;2023-04-01T14:39:59;2.63;;;1.10;;
6973;SDS011;3527;52.376;8.990;2023-04-01T14:42:48;1.23;;;0.90;;
6973;SDS011;3527;52.376;8.990;2023-04-01T14:47:58;1.43;;;0.90;;
6973;SDS011;3527;52.376;8.990;2023-04-01T14:50:30;1.43;;;0.80;;
6973;SDS011;3527;52.376;8.990;2023-04-01T14:58:18;1.60;;;0.90;;
6973;SDS011;3527;52.376;8.990;2023-04-01T15:03:20;2.60;;;1.00;;
6973;SDS011;3527;52.376;8.990;2023-04-01T15:05:52;1.60;;;1.17;;
6973;SDS011;3527;52.376;8.990;2023-04-01T15:16:13;3.00;;;1.40;;
6973;SDS011;3527;52.376;8.990;2023-04-01T15:24:22;2.00;;;1.30;;
6973;SDS011;3527;52.376;8.990;2023-04-01T15:32:14;2.40;;;1.70;;
6973;SDS011;3527;52.376;8.990;2023-04-01T15:34:45;1.87;;;1.50;;
6973;SDS011;3527;52.376;8.990;2023-04-01T15:37:27;1.73;;;1.60;;
6973;SDS011;3527;52.376;8.990;2023-04-01T15:39:57;3.00;;;1.57;;
6973;SDS011;3527;52.376;8.990;2023-04-01T16:00:47;3.63;;;1.57;;
6973;SDS011;3527;52.376;8.990;2023-04-01T16:03:22;1.60;;;1.40;;
6973;SDS011;3527;52.376;8.990;2023-04-01T16:21:14;2.20;;;1.40;;
6973;SDS011;3527;52.376;8.990;2023-04-01T16:28:55;2.00;;;1.03;;
6973;SDS011;3527;52.376;8.990;2023-04-01T16:33:58;1.87;;;1.03;;
6973;SDS011;3527;52.376;8.990;2023-04-01T16:36:41;1.37;;;0.93;;
6973;SDS011;3527;52.376;8.990;2023-04-01T16:39:19;1.20;;;0.80;;
6973;SDS011;3527;52.376;8.990;2023-04-01T16:44:20;1.37;;;1.00;;
6973;SDS011;3527;52.376;8.990;2023-04-01T16:46:58;1.40;;;1.20;;
6973;SDS011;3527;52.376;8.990;2023-04-01T16:49:39;1.63;;;1.30;;
6973;SDS011;3527;52.376;8.990;2023-04-01T16:59:40;1.50;;;1.20;;
6973;SDS011;3527;52.376;8.990;2023-04-01T17:02:12;2.23;;;1.30;;
6973;SDS011;3527;52.376;8.990;2023-04-01T17:07:22;2.00;;;1.20;;
6973;SDS011;3527;52.376;8.990;2023-04-01T17:15:05;2.00;;;1.27;;
6973;SDS011;3527;52.376;8.990;2023-04-01T17:17:45;2.57;;;1.70;;
6973;SDS011;3527;52.376;8.990;2023-04-01T17:20:26;3.97;;;1.90;;
6973;SDS011;3527;52.376;8.990;2023-04-01T17:28:16;1.73;;;1.40;;
6973;SDS011;3527;52.376;8.990;2023-04-01T17:44:30;2.00;;;1.40;;
6973;SDS011;3527;52.376;8.990;2023-04-01T17:46:50;1.83;;;1.40;;
6973;SDS011;3527;52.376;8.990;2023-04-01T17:54:31;1.90;;;1.20;;
6973;SDS011;3527;52.376;8.990;2023-04-01T18:17:42;1.87;;;1.60;;
6973;SDS011;3527;52.376;8.990;2023-04-01T18:30:38;2.17;;;1.57;;
6973;SDS011;3527;52.376;8.990;2023-04-01T18:35:47;2.73;;;1.53;;
6973;SDS011;3527;52.376;8.990;2023-04-01T18:38:23;1.90;;;1.50;;
6973;SDS011;3527;52.376;8.990;2023-04-01T18:48:57;2.13;;;1.80;;
6973;SDS011;3527;52.376;8.990;2023-04-01T18:51:34;2.53;;;1.63;;
6973;SDS011;3527;52.376;8.990;2023-04-01T18:54:05;1.90;;;1.50;;
6973;SDS011;3527;52.376;8.990;2023-04-01T18:56:37;3.20;;;1.47;;
6973;SDS011;3527;52.376;8.990;2023-04-01T19:02:13;2.73;;;2.13;;
6973;SDS011;3527;52.376;8.990;2023-04-01T19:04:45;4.83;;;2.00;;
6973;SDS011;3527;52.376;8.990;2023-04-01T19:10:06;3.00;;;2.23;;
6973;SDS011;3527;52.376;8.990;2023-04-01T19:15:13;2.47;;;2.10;;
6973;SDS011;3527;52.376;8.990;2023-04-01T19:18:02;4.47;;;2.10;;
6973;SDS011;3527;52.376;8.990;2023-04-01T19:25:55;3.23;;;2.40;;
6973;SDS011;3527;52.376;8.990;2023-04-01T19:28:41;3.63;;;2.87;;
6973;SDS011;3527;52.376;8.990;2023-04-01T19:31:11;4.20;;;2.30;;
6973;SDS011;3527;52.376;8.990;2023-04-01T19:33:59;3.30;;;2.93;;
6973;SDS011;3527;52.376;8.990;2023-04-01T19:49:12;3.73;;;2.30;;
6973;SDS011;3527;52.376;8.990;2023-04-01T19:54:28;3.03;;;2.30;;
6973;SDS011;3527;52.376;8.990;2023-04-01T19:57:13;4.30;;;2.20;;
6973;SDS011;3527;52.376;8.990;2023-04-01T20:04:49;4.60;;;2.50;;
6973;SDS011;3527;52.376;8.990;2023-04-01T20:07:40;2.57;;;1.90;;
6973;SDS011;3527;52.376;8.990;2023-04-01T20:10:09;2.77;;;1.80;;
6973;SDS011;3527;52.376;8.990;2023-04-01T20:17:51;3.77;;;2.40;;
6973;SDS011;3527;52.376;8.990;2023-04-01T20:20:20;2.70;;;2.33;;
6973;SDS011;3527;52.376;8.990;2023-04-01T20:22:54;2.90;;;2.33;;
6973;SDS011;3527;52.376;8.990;2023-04-01T20:38:48;3.83;;;2.37;;
6973;SDS011;3527;52.376;8.990;2023-04-01T20:41:31;3.50;;;2.40;;
6973;SDS011;3527;52.376;8.990;2023-04-01T20:44:08;3.27;;;2.40;;
6973;SDS011;3527;52.376;8.990;2023-04-01T20:52:32;5.97;;;3.10;;
6973;SDS011;3527;52.376;8.990;2023-04-01T20:57:25;6.23;;;3.57;;
6973;SDS011;3527;52.376;8.990;2023-04-01T21:02:46;6.83;;;3.37;;
6973;SDS011;3527;52.376;8.990;2023-04-01T21:07:41;4.97;;;4.10;;
6973;SDS011;3527;52.376;8.990;2023-04-01T21:18:32;5.67;;;4.47;;
6973;SDS011;3527;52.376;8.990;2023-04-01T21:23:49;6.17;;;4.03;;
6973;SDS011;3527;52.376;8.990;2023-04-01T21:32:18;5.27;;;3.70;;
6973;SDS011;3527;52.376;8.990;2023-04-01T21:47:52;6.23;;;4.07;;
6973;SDS011;3527;52.376;8.990;2023-04-01T22:00:18;8.07;;;4.47;;
6973;SDS011;3527;52.376;8.990;2023-04-01T22:05:26;8.20;;;4.90;;
6973;SDS011;3527;52.376;8.990;2023-04-01T22:16:08;9.07;;;4.93;;
6973;SDS011;3527;52.376;8.990;2023-04-01T22:18:39;5.90;;;4.27;;
6973;SDS011;3527;52.376;8.990;2023-04-01T22:21:09;9.43;;;5.17;;
6973;SDS011;3527;52.376;8.990;2023-04-01T22:23:42;7.00;;;4.17;;
6973;SDS011;3527;52.376;8.990;2023-04-01T22:26:13;7.37;;;5.03;;
6973;SDS011;3527;52.376;8.990;2023-04-01T22:28:56;6.73;;;5.10;;
6973;SDS011;3527;52.376;8.990;2023-04-01T22:31:33;7.30;;;4.13;;
6973;SDS011;3527;52.376;8.990;2023-04-01T22:34:12;8.97;;;4.83;;
6973;SDS011;3527;52.376;8.990;2023-04-01T22:44:22;8.17;;;4.37;;
6973;SDS011;3527;52.376;8.990;2023-04-01T22:46:56;8.47;;;4.13;;
6973;SDS011;3527;52.376;8.990;2023-04-01T22:52:25;7.53;;;4.20;;
6973;SDS011;3527;52.376;8.990;2023-04-01T22:54:56;7.37;;;4.20;;
6973;SDS011;3527;52.376;8.990;2023-04-01T23:05:40;7.40;;;4.30;;
6973;SDS011;3527;52.376;8.990;2023-04-01T23:10:58;6.30;;;4.13;;
6973;SDS011;3527;52.376;8.990;2023-04-01T23:13:28;8.17;;;4.23;;
6973;SDS011;3527;52.376;8.990;2023-04-01T23:15:56;7.57;;;4.57;;
6973;SDS011;3527;52.376;8.990;2023-04-01T23:18:45;8.13;;;4.30;;
6973;SDS011;3527;52.376;8.990;2023-04-01T23:26:24;6.57;;;3.83;;
6973;SDS011;3527;52.376;8.990;2023-04-01T23:28:56;6.97;;;4.67;;
6973;SDS011;3527;52.376;8.990;2023-04-01T23:31:27;7.43;;;5.60;;
6973;SDS011;3527;52.376;8.990;2023-04-01T23:34:02;7.63;;;4.30;;
6973;SDS011;3527;52.376;8.990;2023-04-01T23:36:30;8.27;;;4.57;;
6973;SDS011;3527;52.376;8.990;2023-04-01T23:38:58;7.60;;;4.97;;
6973;SDS011;3527;52.376;8.990;2023-04-01T23:41:27;8.63;;;5.07;;
6973;SDS011;3527;52.376;8.990;2023-04-01T23:44:00;5.97;;;4.73;;
6973;SDS011;3527;52.376;8.990;2023-04-01T23:46:28;7.93;;;4.67;;
6973;SDS011;3527;52.376;8.990;2023-04-01T23:48:55;8.23;;;4.53;;
6973;SDS011;3527;52.376;8.990;2023-04-01T23:51:25;7.03;;;4.93;;
6973;SDS011;3527;52.376;8.990;2023-04-01T23:54:02;9.40;;;4.90;;
6973;SDS011;3527;52.376;8.990;2023-04-01T23:56:38;12.87;;;6.40;;
6973;SDS011;3527;52.376;8.990;2023-04-01T23:59:04;9.20;;;6.67;;
